sensor_id;sensor_type;location;lat;lon;timestamp;P1;durP1;ratioP1;P2;durP2;ratioP2
11086;SDS011;5597;47.588;9.642;2023-04-28T00:01:14;2.60;;;2.10;;
11086;SDS011;5597;47.588;9.642;2023-04-28T00:03:40;1.80;;;1.63;;
11086;SDS011;5597;47.588;9.642;2023-04-28T00:06:05;2.37;;;1.93;;
11086;SDS011;5597;47.588;9.642;2023-04-28T00:08:31;1.93;;;1.80;;
11086;SDS011;5597;47.588;9.642;2023-04-28T00:10:57;2.10;;;1.90;;
11086;SDS011;5597;47.588;9.642;2023-04-28T00:13:23;2.50;;;2.07;;
11086;SDS011;5597;47.588;9.642;2023-04-28T00:15:49;2.23;;;2.00;;
11086;SDS011;5597;47.588;9.642;2023-04-28T00:18:16;2.50;;;1.90;;
11086;SDS011;5597;47.588;9.642;2023-04-28T00:20:42;3.07;;;2.07;;
11086;SDS011;5597;47.588;9.642;2023-04-28T00:23:08;2.30;;;2.07;;
11086;SDS011;5597;47.588;9.642;2023-04-28T00:25:34;2.70;;;1.70;;
11086;SDS011;5597;47.588;9.642;2023-04-28T00:27:59;2.13;;;1.90;;
11086;SDS011;5597;47.588;9.642;2023-04-28T00:30:25;2.10;;;1.70;;
11086;SDS011;5597;47.588;9.642;2023-04-28T00:32:51;2.60;;;1.97;;
11086;SDS011;5597;47.588;9.642;2023-04-28T00:35:17;4.20;;;2.10;;
11086;SDS011;5597;47.588;9.642;2023-04-28T00:37:42;1.90;;;1.70;;
11086;SDS011;5597;47.588;9.642;2023-04-28T00:40:08;2.20;;;2.00;;
11086;SDS011;5597;47.588;9.642;2023-04-28T00:42:34;1.93;;;1.73;;
11086;SDS011;5597;47.588;9.642;2023-04-28T00:45:00;2.80;;;1.70;;
11086;SDS011;5597;47.588;9.642;2023-04-28T00:47:30;1.93;;;1.67;;
11086;SDS011;5597;47.588;9.642;2023-04-28T00:49:57;2.10;;;1.90;;
11086;SDS011;5597;47.588;9.642;2023-04-28T00:52:23;2.77;;;2.10;;
11086;SDS011;5597;47.588;9.642;2023-04-28T00:54:49;2.70;;;2.00;;
11086;SDS011;5597;47.588;9.642;2023-04-28T00:57:15;1.70;;;1.60;;
11086;SDS011;5597;47.588;9.642;2023-04-28T00:59:40;2.00;;;1.80;;
11086;SDS011;5597;47.588;9.642;2023-04-28T01:02:06;2.10;;;1.90;;
11086;SDS011;5597;47.588;9.642;2023-04-28T01:04:32;2.30;;;2.00;;
11086;SDS011;5597;47.588;9.642;2023-04-28T01:06:57;2.87;;;2.00;;
11086;SDS011;5597;47.588;9.642;2023-04-28T01:09:24;1.83;;;1.73;;
11086;SDS011;5597;47.588;9.642;2023-04-28T01:11:50;2.20;;;1.90;;
11086;SDS011;5597;47.588;9.642;2023-04-28T01:14:15;3.07;;;2.10;;
11086;SDS011;5597;47.588;9.642;2023-04-28T01:16:41;1.93;;;1.73;;
11086;SDS011;5597;47.588;9.642;2023-04-28T01:19:08;3.00;;;1.87;;
11086;SDS011;5597;47.588;9.642;2023-04-28T01:21:39;2.27;;;2.07;;
11086;SDS011;5597;47.588;9.642;2023-04-28T01:24:05;3.20;;;1.90;;
11086;SDS011;5597;47.588;9.642;2023-04-28T01:26:31;2.40;;;1.83;;
11086;SDS011;5597;47.588;9.642;2023-04-28T01:28:56;2.63;;;2.00;;
11086;SDS011;5597;47.588;9.642;2023-04-28T01:31:22;2.20;;;2.00;;
11086;SDS011;5597;47.588;9.642;2023-04-28T01:33:47;1.83;;;1.73;;
11086;SDS011;5597;47.588;9.642;2023-04-28T01:36:13;3.60;;;2.10;;
11086;SDS011;5597;47.588;9.642;2023-04-28T01:38:38;2.27;;;1.80;;
11086;SDS011;5597;47.588;9.642;2023-04-28T01:41:04;2.87;;;1.90;;
11086;SDS011;5597;47.588;9.642;2023-04-28T01:43:29;1.90;;;1.80;;
11086;SDS011;5597;47.588;9.642;2023-04-28T01:45:55;2.00;;;1.80;;
11086;SDS011;5597;47.588;9.642;2023-04-28T01:48:21;2.00;;;1.80;;
11086;SDS011;5597;47.588;9.642;2023-04-28T01:50:46;2.17;;;1.97;;
11086;SDS011;5597;47.588;9.642;2023-04-28T01:53:12;1.70;;;1.60;;
11086;SDS011;5597;47.588;9.642;2023-04-28T01:55:38;2.57;;;2.10;;
11086;SDS011;5597;47.588;9.642;2023-04-28T01:58:04;2.10;;;1.90;;
11086;SDS011;5597;47.588;9.642;2023-04-28T02:00:30;1.63;;;1.53;;
11086;SDS011;5597;47.588;9.642;2023-04-28T02:02:55;2.50;;;2.10;;
11086;SDS011;5597;47.588;9.642;2023-04-28T02:05:21;3.13;;;2.10;;
11086;SDS011;5597;47.588;9.642;2023-04-28T02:07:46;2.47;;;2.00;;
11086;SDS011;5597;47.588;9.642;2023-04-28T02:10:12;1.80;;;1.70;;
11086;SDS011;5597;47.588;9.642;2023-04-28T02:12:37;2.73;;;1.90;;
11086;SDS011;5597;47.588;9.642;2023-04-28T02:15:05;2.00;;;1.80;;
11086;SDS011;5597;47.588;9.642;2023-04-28T02:17:31;2.87;;;1.93;;
11086;SDS011;5597;47.588;9.642;2023-04-28T02:19:57;2.23;;;1.97;;
11086;SDS011;5597;47.588;9.642;2023-04-28T02:22:23;3.70;;;2.10;;
11086;SDS011;5597;47.588;9.642;2023-04-28T02:24:49;2.80;;;2.10;;
11086;SDS011;5597;47.588;9.642;2023-04-28T02:27:15;2.60;;;2.03;;
11086;SDS011;5597;47.588;9.642;2023-04-28T02:29:40;2.43;;;2.00;;
11086;SDS011;5597;47.588;9.642;2023-04-28T02:32:06;2.67;;;2.17;;
11086;SDS011;5597;47.588;9.642;2023-04-28T02:34:32;2.43;;;2.23;;
11086;SDS011;5597;47.588;9.642;2023-04-28T02:36:58;2.23;;;2.03;;
11086;SDS011;5597;47.588;9.642;2023-04-28T02:39:23;2.90;;;2.17;;
11086;SDS011;5597;47.588;9.642;2023-04-28T02:41:53;2.13;;;1.93;;
11086;SDS011;5597;47.588;9.642;2023-04-28T02:44:19;3.30;;;2.13;;
11086;SDS011;5597;47.588;9.642;2023-04-28T02:46:45;2.77;;;2.20;;
11086;SDS011;5597;47.588;9.642;2023-04-28T02:49:11;2.33;;;2.13;;
11086;SDS011;5597;47.588;9.642;2023-04-28T02:51:36;2.80;;;2.30;;
11086;SDS011;5597;47.588;9.642;2023-04-28T02:54:02;3.23;;;2.40;;
11086;SDS011;5597;47.588;9.642;2023-04-28T02:56:28;2.97;;;2.37;;
11086;SDS011;5597;47.588;9.642;2023-04-28T02:58:57;2.30;;;2.10;;
11086;SDS011;5597;47.588;9.642;2023-04-28T03:01:22;2.87;;;2.57;;
11086;SDS011;5597;47.588;9.642;2023-04-28T03:03:48;3.90;;;2.60;;
11086;SDS011;5597;47.588;9.642;2023-04-28T03:06:14;2.63;;;2.43;;
11086;SDS011;5597;47.588;9.642;2023-04-28T03:08:39;2.57;;;2.37;;
11086;SDS011;5597;47.588;9.642;2023-04-28T03:11:05;2.93;;;2.40;;
11086;SDS011;5597;47.588;9.642;2023-04-28T03:13:31;3.20;;;2.73;;
11086;SDS011;5597;47.588;9.642;2023-04-28T03:15:56;2.97;;;2.67;;
11086;SDS011;5597;47.588;9.642;2023-04-28T03:18:22;4.47;;;2.80;;
11086;SDS011;5597;47.588;9.642;2023-04-28T03:20:48;2.83;;;2.53;;
11086;SDS011;5597;47.588;9.642;2023-04-28T03:23:14;2.83;;;2.40;;
11086;SDS011;5597;47.588;9.642;2023-04-28T03:25:40;2.50;;;2.30;;
11086;SDS011;5597;47.588;9.642;2023-04-28T03:28:05;2.40;;;2.20;;
11086;SDS011;5597;47.588;9.642;2023-04-28T03:30:31;2.80;;;2.40;;
11086;SDS011;5597;47.588;9.642;2023-04-28T03:32:57;3.40;;;2.93;;
11086;SDS011;5597;47.588;9.642;2023-04-28T03:35:22;3.13;;;2.83;;
11086;SDS011;5597;47.588;9.642;2023-04-28T03:37:48;3.00;;;2.70;;
11086;SDS011;5597;47.588;9.642;2023-04-28T03:40:14;2.80;;;2.60;;
11086;SDS011;5597;47.588;9.642;2023-04-28T03:42:39;3.30;;;2.73;;
11086;SDS011;5597;47.588;9.642;2023-04-28T03:45:05;4.77;;;3.50;;
11086;SDS011;5597;47.588;9.642;2023-04-28T03:47:32;3.73;;;3.07;;
11086;SDS011;5597;47.588;9.642;2023-04-28T03:49:57;3.70;;;3.23;;
11086;SDS011;5597;47.588;9.642;2023-04-28T03:52:23;3.60;;;3.30;;
11086;SDS011;5597;47.588;9.642;2023-04-28T03:54:50;3.60;;;2.90;;
11086;SDS011;5597;47.588;9.642;2023-04-28T03:57:15;4.00;;;3.60;;
11086;SDS011;5597;47.588;9.642;2023-04-28T03:59:41;4.00;;;3.60;;
11086;SDS011;5597;47.588;9.642;2023-04-28T04:02:06;4.80;;;4.30;;
11086;SDS011;5597;47.588;9.642;2023-04-28T04:04:32;4.43;;;4.03;;
11086;SDS011;5597;47.588;9.642;2023-04-28T04:06:58;6.03;;;4.53;;
11086;SDS011;5597;47.588;9.642;2023-04-28T04:09:23;4.87;;;4.40;;
11086;SDS011;5597;47.588;9.642;2023-04-28T04:11:49;5.37;;;4.13;;
11086;SDS011;5597;47.588;9.642;2023-04-28T04:14:15;4.00;;;3.70;;
11086;SDS011;5597;47.588;9.642;2023-04-28T04:16:41;4.50;;;4.07;;
11086;SDS011;5597;47.588;9.642;2023-04-28T04:19:06;3.77;;;3.47;;
11086;SDS011;5597;47.588;9.642;2023-04-28T04:21:32;3.93;;;3.53;;
11086;SDS011;5597;47.588;9.642;2023-04-28T04:23:57;4.00;;;3.60;;
11086;SDS011;5597;47.588;9.642;2023-04-28T04:26:23;3.77;;;3.40;;
11086;SDS011;5597;47.588;9.642;2023-04-28T04:28:49;4.13;;;3.73;;
11086;SDS011;5597;47.588;9.642;2023-04-28T04:31:14;4.13;;;3.73;;
11086;SDS011;5597;47.588;9.642;2023-04-28T04:33:40;3.77;;;3.20;;
11086;SDS011;5597;47.588;9.642;2023-04-28T04:36:06;3.80;;;3.43;;
11086;SDS011;5597;47.588;9.642;2023-04-28T04:38:31;3.30;;;3.00;;
11086;SDS011;5597;47.588;9.642;2023-04-28T04:40:57;3.03;;;2.77;;
11086;SDS011;5597;47.588;9.642;2023-04-28T04:43:23;3.97;;;3.67;;
11086;SDS011;5597;47.588;9.642;2023-04-28T04:45:48;3.33;;;3.03;;
11086;SDS011;5597;47.588;9.642;2023-04-28T04:48:14;4.40;;;3.40;;
11086;SDS011;5597;47.588;9.642;2023-04-28T04:50:39;4.70;;;3.60;;
11086;SDS011;5597;47.588;9.642;2023-04-28T04:53:06;6.23;;;3.90;;
11086;SDS011;5597;47.588;9.642;2023-04-28T04:55:31;3.83;;;3.47;;
11086;SDS011;5597;47.588;9.642;2023-04-28T04:57:57;4.83;;;3.73;;
11086;SDS011;5597;47.588;9.642;2023-04-28T05:00:23;3.53;;;3.17;;
11086;SDS011;5597;47.588;9.642;2023-04-28T05:02:48;4.40;;;3.30;;
11086;SDS011;5597;47.588;9.642;2023-04-28T05:05:14;2.87;;;2.67;;
11086;SDS011;5597;47.588;9.642;2023-04-28T05:07:40;3.47;;;2.83;;
11086;SDS011;5597;47.588;9.642;2023-04-28T05:10:06;3.23;;;2.70;;
11086;SDS011;5597;47.588;9.642;2023-04-28T05:12:31;2.70;;;2.50;;
11086;SDS011;5597;47.588;9.642;2023-04-28T05:14:57;2.80;;;2.60;;
11086;SDS011;5597;47.588;9.642;2023-04-28T05:17:22;3.27;;;2.70;;
11086;SDS011;5597;47.588;9.642;2023-04-28T05:19:49;3.83;;;3.00;;
11086;SDS011;5597;47.588;9.642;2023-04-28T05:22:15;3.77;;;2.53;;
11086;SDS011;5597;47.588;9.642;2023-04-28T05:24:40;3.93;;;2.27;;
11086;SDS011;5597;47.588;9.642;2023-04-28T05:27:06;3.17;;;2.73;;
11086;SDS011;5597;47.588;9.642;2023-04-28T05:29:31;2.63;;;2.37;;
11086;SDS011;5597;47.588;9.642;2023-04-28T05:31:57;3.37;;;2.60;;
11086;SDS011;5597;47.588;9.642;2023-04-28T05:34:22;2.90;;;2.47;;
11086;SDS011;5597;47.588;9.642;2023-04-28T05:36:48;3.07;;;2.60;;
11086;SDS011;5597;47.588;9.642;2023-04-28T05:39:14;2.53;;;2.33;;
11086;SDS011;5597;47.588;9.642;2023-04-28T05:41:39;4.40;;;2.73;;
11086;SDS011;5597;47.588;9.642;2023-04-28T05:44:05;3.03;;;2.73;;
11086;SDS011;5597;47.588;9.642;2023-04-28T05:46:31;3.20;;;2.90;;
11086;SDS011;5597;47.588;9.642;2023-04-28T05:48:57;4.00;;;3.13;;
11086;SDS011;5597;47.588;9.642;2023-04-28T05:51:23;3.83;;;2.97;;
11086;SDS011;5597;47.588;9.642;2023-04-28T05:53:48;3.80;;;3.33;;
11086;SDS011;5597;47.588;9.642;2023-04-28T05:56:14;4.40;;;3.40;;
11086;SDS011;5597;47.588;9.642;2023-04-28T05:58:41;3.67;;;2.97;;
11086;SDS011;5597;47.588;9.642;2023-04-28T06:01:08;4.83;;;3.10;;
11086;SDS011;5597;47.588;9.642;2023-04-28T06:03:34;4.77;;;2.97;;
11086;SDS011;5597;47.588;9.642;2023-04-28T06:06:00;3.67;;;2.73;;
11086;SDS011;5597;47.588;9.642;2023-04-28T06:08:26;5.13;;;3.07;;
11086;SDS011;5597;47.588;9.642;2023-04-28T06:10:51;4.23;;;2.97;;
11086;SDS011;5597;47.588;9.642;2023-04-28T06:13:17;3.57;;;3.23;;
11086;SDS011;5597;47.588;9.642;2023-04-28T06:15:42;6.07;;;2.93;;
11086;SDS011;5597;47.588;9.642;2023-04-28T06:18:08;3.93;;;3.00;;
11086;SDS011;5597;47.588;9.642;2023-04-28T06:20:34;3.70;;;2.97;;
11086;SDS011;5597;47.588;9.642;2023-04-28T06:23:00;3.00;;;2.67;;
11086;SDS011;5597;47.588;9.642;2023-04-28T06:25:27;4.60;;;3.10;;
11086;SDS011;5597;47.588;9.642;2023-04-28T06:27:53;3.17;;;2.80;;
11086;SDS011;5597;47.588;9.642;2023-04-28T06:30:19;4.63;;;2.87;;
11086;SDS011;5597;47.588;9.642;2023-04-28T06:32:47;3.87;;;2.60;;
11086;SDS011;5597;47.588;9.642;2023-04-28T06:35:13;4.40;;;2.70;;
11086;SDS011;5597;47.588;9.642;2023-04-28T06:37:39;4.70;;;2.80;;
11086;SDS011;5597;47.588;9.642;2023-04-28T06:40:05;3.50;;;2.40;;
11086;SDS011;5597;47.588;9.642;2023-04-28T06:42:32;3.47;;;2.77;;
11086;SDS011;5597;47.588;9.642;2023-04-28T06:44:57;2.77;;;2.57;;
11086;SDS011;5597;47.588;9.642;2023-04-28T06:47:23;3.53;;;2.57;;
11086;SDS011;5597;47.588;9.642;2023-04-28T06:49:49;3.07;;;2.30;;
11086;SDS011;5597;47.588;9.642;2023-04-28T06:52:14;3.33;;;2.43;;
11086;SDS011;5597;47.588;9.642;2023-04-28T06:54:40;2.30;;;2.10;;
11086;SDS011;5597;47.588;9.642;2023-04-28T06:57:06;2.50;;;2.00;;
11086;SDS011;5597;47.588;9.642;2023-04-28T06:59:31;2.20;;;2.00;;
11086;SDS011;5597;47.588;9.642;2023-04-28T07:01:57;2.83;;;2.17;;
11086;SDS011;5597;47.588;9.642;2023-04-28T07:04:23;2.30;;;2.10;;
11086;SDS011;5597;47.588;9.642;2023-04-28T07:06:50;2.43;;;1.97;;
11086;SDS011;5597;47.588;9.642;2023-04-28T07:09:16;2.43;;;1.90;;
11086;SDS011;5597;47.588;9.642;2023-04-28T07:11:42;3.20;;;1.70;;
11086;SDS011;5597;47.588;9.642;2023-04-28T07:14:08;3.50;;;2.10;;
11086;SDS011;5597;47.588;9.642;2023-04-28T07:16:33;1.70;;;1.60;;
11086;SDS011;5597;47.588;9.642;2023-04-28T07:19:00;1.93;;;1.70;;
11086;SDS011;5597;47.588;9.642;2023-04-28T07:21:25;1.70;;;1.60;;
11086;SDS011;5597;47.588;9.642;2023-04-28T07:23:52;2.13;;;1.93;;
11086;SDS011;5597;47.588;9.642;2023-04-28T07:26:20;2.43;;;1.63;;
11086;SDS011;5597;47.588;9.642;2023-04-28T07:28:46;2.07;;;1.77;;
11086;SDS011;5597;47.588;9.642;2023-04-28T07:31:12;1.87;;;1.60;;
11086;SDS011;5597;47.588;9.642;2023-04-28T07:33:38;3.23;;;1.97;;
11086;SDS011;5597;47.588;9.642;2023-04-28T07:36:03;2.30;;;1.70;;
11086;SDS011;5597;47.588;9.642;2023-04-28T07:38:29;3.47;;;1.97;;
11086;SDS011;5597;47.588;9.642;2023-04-28T07:40:55;2.20;;;1.80;;
11086;SDS011;5597;47.588;9.642;2023-04-28T07:43:21;1.77;;;1.53;;
11086;SDS011;5597;47.588;9.642;2023-04-28T07:45:46;2.37;;;1.70;;
11086;SDS011;5597;47.588;9.642;2023-04-28T07:48:13;3.77;;;1.60;;
11086;SDS011;5597;47.588;9.642;2023-04-28T07:50:40;2.43;;;1.90;;
11086;SDS011;5597;47.588;9.642;2023-04-28T07:53:05;1.60;;;1.50;;
11086;SDS011;5597;47.588;9.642;2023-04-28T07:55:31;1.80;;;1.60;;
11086;SDS011;5597;47.588;9.642;2023-04-28T07:57:56;2.70;;;1.80;;
11086;SDS011;5597;47.588;9.642;2023-04-28T08:00:22;3.00;;;1.70;;
11086;SDS011;5597;47.588;9.642;2023-04-28T08:02:48;2.70;;;1.93;;
11086;SDS011;5597;47.588;9.642;2023-04-28T08:05:14;2.40;;;1.57;;
11086;SDS011;5597;47.588;9.642;2023-04-28T08:07:41;1.87;;;1.57;;
11086;SDS011;5597;47.588;9.642;2023-04-28T08:10:08;1.57;;;1.47;;
11086;SDS011;5597;47.588;9.642;2023-04-28T08:12:34;1.80;;;1.70;;
11086;SDS011;5597;47.588;9.642;2023-04-28T08:15:00;2.63;;;1.73;;
11086;SDS011;5597;47.588;9.642;2023-04-28T08:17:26;1.70;;;1.60;;
11086;SDS011;5597;47.588;9.642;2023-04-28T08:19:51;2.97;;;1.63;;
11086;SDS011;5597;47.588;9.642;2023-04-28T08:22:17;2.13;;;1.53;;
11086;SDS011;5597;47.588;9.642;2023-04-28T08:24:42;1.70;;;1.50;;
11086;SDS011;5597;47.588;9.642;2023-04-28T08:27:08;1.93;;;1.70;;
11086;SDS011;5597;47.588;9.642;2023-04-28T09:10:44;1.93;;;1.63;;
11086;SDS011;5597;47.588;9.642;2023-04-28T09:13:09;2.50;;;1.40;;
11086;SDS011;5597;47.588;9.642;2023-04-28T09:15:49;1.83;;;1.60;;
11086;SDS011;5597;47.588;9.642;2023-04-28T09:18:22;3.10;;;1.57;;
11086;SDS011;5597;47.588;9.642;2023-04-28T09:20:48;2.20;;;1.87;;
11086;SDS011;5597;47.588;9.642;2023-04-28T09:23:17;2.37;;;1.90;;
11086;SDS011;5597;47.588;9.642;2023-04-28T09:25:56;2.27;;;2.03;;
11086;SDS011;5597;47.588;9.642;2023-04-28T09:28:23;2.50;;;2.07;;
11086;SDS011;5597;47.588;9.642;2023-04-28T09:30:49;1.63;;;1.53;;
11086;SDS011;5597;47.588;9.642;2023-04-28T09:33:15;2.57;;;1.83;;
11086;SDS011;5597;47.588;9.642;2023-04-28T09:35:41;3.03;;;1.80;;
11086;SDS011;5597;47.588;9.642;2023-04-28T09:38:07;1.67;;;1.57;;
11086;SDS011;5597;47.588;9.642;2023-04-28T09:40:47;2.10;;;1.60;;
11086;SDS011;5597;47.588;9.642;2023-04-28T09:43:21;2.13;;;1.40;;
11086;SDS011;5597;47.588;9.642;2023-04-28T09:45:51;2.97;;;1.50;;
11086;SDS011;5597;47.588;9.642;2023-04-28T09:48:17;2.30;;;1.70;;
11086;SDS011;5597;47.588;9.642;2023-04-28T09:50:54;1.80;;;1.57;;
11086;SDS011;5597;47.588;9.642;2023-04-28T09:53:21;1.70;;;1.60;;
11086;SDS011;5597;47.588;9.642;2023-04-28T09:55:48;2.23;;;1.40;;
11086;SDS011;5597;47.588;9.642;2023-04-28T09:58:15;3.57;;;1.87;;
11086;SDS011;5597;47.588;9.642;2023-04-28T10:00:45;1.73;;;1.50;;
11086;SDS011;5597;47.588;9.642;2023-04-28T10:03:22;2.13;;;1.60;;
11086;SDS011;5597;47.588;9.642;2023-04-28T10:05:48;1.60;;;1.50;;
11086;SDS011;5597;47.588;9.642;2023-04-28T10:08:17;1.50;;;1.40;;
11086;SDS011;5597;47.588;9.642;2023-04-28T10:10:47;2.73;;;2.10;;
11086;SDS011;5597;47.588;9.642;2023-04-28T10:13:15;3.83;;;3.43;;
11086;SDS011;5597;47.588;9.642;2023-04-28T10:15:41;4.70;;;4.03;;
11086;SDS011;5597;47.588;9.642;2023-04-28T10:18:07;4.97;;;3.40;;
11086;SDS011;5597;47.588;9.642;2023-04-28T10:20:34;4.47;;;3.60;;
11086;SDS011;5597;47.588;9.642;2023-04-28T10:26:09;2.20;;;2.00;;
11086;SDS011;5597;47.588;9.642;2023-04-28T10:28:43;2.20;;;1.90;;
11086;SDS011;5597;47.588;9.642;2023-04-28T10:31:19;2.07;;;1.80;;
11086;SDS011;5597;47.588;9.642;2023-04-28T10:33:46;1.93;;;1.67;;
11086;SDS011;5597;47.588;9.642;2023-04-28T10:39:11;1.87;;;1.63;;
11086;SDS011;5597;47.588;9.642;2023-04-28T10:41:36;2.10;;;1.90;;
11086;SDS011;5597;47.588;9.642;2023-04-28T10:47:02;3.53;;;1.83;;
11086;SDS011;5597;47.588;9.642;2023-04-28T10:52:49;1.67;;;1.57;;
11086;SDS011;5597;47.588;9.642;2023-04-28T11:00:51;2.80;;;1.80;;
11086;SDS011;5597;47.588;9.642;2023-04-28T11:06:29;2.30;;;1.80;;
11086;SDS011;5597;47.588;9.642;2023-04-28T11:09:45;1.97;;;1.60;;
11086;SDS011;5597;47.588;9.642;2023-04-28T11:16:57;2.23;;;1.80;;
11086;SDS011;5597;47.588;9.642;2023-04-28T11:22:03;2.13;;;1.87;;
11086;SDS011;5597;47.588;9.642;2023-04-28T11:24:35;2.97;;;1.77;;
11086;SDS011;5597;47.588;9.642;2023-04-28T11:27:01;2.70;;;2.00;;
11086;SDS011;5597;47.588;9.642;2023-04-28T11:29:34;2.27;;;2.07;;
11086;SDS011;5597;47.588;9.642;2023-04-28T11:32:05;2.20;;;2.00;;
11086;SDS011;5597;47.588;9.642;2023-04-28T11:34:32;2.17;;;1.97;;
11086;SDS011;5597;47.588;9.642;2023-04-28T11:36:58;2.33;;;2.07;;
11086;SDS011;5597;47.588;9.642;2023-04-28T11:39:31;2.80;;;1.90;;
11086;SDS011;5597;47.588;9.642;2023-04-28T11:41:57;2.57;;;2.00;;
11086;SDS011;5597;47.588;9.642;2023-04-28T11:44:27;2.17;;;1.97;;
11086;SDS011;5597;47.588;9.642;2023-04-28T11:46:55;3.17;;;2.00;;
11086;SDS011;5597;47.588;9.642;2023-04-28T11:49:45;2.00;;;1.80;;
11086;SDS011;5597;47.588;9.642;2023-04-28T11:52:11;2.07;;;1.63;;
11086;SDS011;5597;47.588;9.642;2023-04-28T11:54:37;1.70;;;1.60;;
11086;SDS011;5597;47.588;9.642;2023-04-28T11:57:03;1.90;;;1.80;;
11086;SDS011;5597;47.588;9.642;2023-04-28T11:59:30;2.37;;;1.87;;
11086;SDS011;5597;47.588;9.642;2023-04-28T12:02:03;1.80;;;1.70;;
11086;SDS011;5597;47.588;9.642;2023-04-28T12:04:34;2.30;;;1.80;;
11086;SDS011;5597;47.588;9.642;2023-04-28T12:07:03;1.70;;;1.60;;
11086;SDS011;5597;47.588;9.642;2023-04-28T12:09:29;3.23;;;2.93;;
11086;SDS011;5597;47.588;9.642;2023-04-28T12:11:55;4.67;;;4.20;;
11086;SDS011;5597;47.588;9.642;2023-04-28T12:14:29;3.60;;;2.73;;
11086;SDS011;5597;47.588;9.642;2023-04-28T12:16:59;2.57;;;2.00;;
11086;SDS011;5597;47.588;9.642;2023-04-28T12:19:25;2.73;;;1.77;;
11086;SDS011;5597;47.588;9.642;2023-04-28T12:21:57;2.10;;;1.90;;
11086;SDS011;5597;47.588;9.642;2023-04-28T12:24:25;2.43;;;1.80;;
11086;SDS011;5597;47.588;9.642;2023-04-28T12:26:51;2.10;;;1.90;;
11086;SDS011;5597;47.588;9.642;2023-04-28T12:29:36;2.30;;;2.10;;
11086;SDS011;5597;47.588;9.642;2023-04-28T12:32:06;2.27;;;2.07;;
11086;SDS011;5597;47.588;9.642;2023-04-28T12:34:36;2.20;;;2.00;;
11086;SDS011;5597;47.588;9.642;2023-04-28T12:37:03;2.20;;;2.00;;
11086;SDS011;5597;47.588;9.642;2023-04-28T12:39:29;2.17;;;1.90;;
11086;SDS011;5597;47.588;9.642;2023-04-28T12:41:55;1.97;;;1.83;;
11086;SDS011;5597;47.588;9.642;2023-04-28T12:44:23;3.43;;;2.33;;
11086;SDS011;5597;47.588;9.642;2023-04-28T12:46:49;3.07;;;2.30;;
11086;SDS011;5597;47.588;9.642;2023-04-28T12:49:15;2.40;;;2.20;;
11086;SDS011;5597;47.588;9.642;2023-04-28T12:51:41;2.67;;;2.47;;
11086;SDS011;5597;47.588;9.642;2023-04-28T12:54:06;3.10;;;2.50;;
11086;SDS011;5597;47.588;9.642;2023-04-28T12:56:32;3.20;;;2.60;;
11086;SDS011;5597;47.588;9.642;2023-04-28T12:58:58;2.43;;;2.23;;
11086;SDS011;5597;47.588;9.642;2023-04-28T13:01:27;2.40;;;2.20;;
11086;SDS011;5597;47.588;9.642;2023-04-28T13:03:53;2.60;;;2.40;;
11086;SDS011;5597;47.588;9.642;2023-04-28T13:06:19;2.80;;;2.50;;
11086;SDS011;5597;47.588;9.642;2023-04-28T13:08:44;2.53;;;2.27;;
11086;SDS011;5597;47.588;9.642;2023-04-28T13:11:10;2.50;;;2.30;;
11086;SDS011;5597;47.588;9.642;2023-04-28T13:13:36;2.60;;;2.40;;
11086;SDS011;5597;47.588;9.642;2023-04-28T13:16:02;3.07;;;2.30;;
11086;SDS011;5597;47.588;9.642;2023-04-28T13:18:28;2.60;;;1.97;;
11086;SDS011;5597;47.588;9.642;2023-04-28T13:20:55;2.40;;;2.10;;
11086;SDS011;5597;47.588;9.642;2023-04-28T13:23:21;2.30;;;2.10;;
11086;SDS011;5597;47.588;9.642;2023-04-28T13:25:46;4.57;;;2.50;;
11086;SDS011;5597;47.588;9.642;2023-04-28T13:28:12;1.97;;;1.87;;
11086;SDS011;5597;47.588;9.642;2023-04-28T13:30:38;2.30;;;2.10;;
11086;SDS011;5597;47.588;9.642;2023-04-28T13:33:04;2.47;;;1.83;;
11086;SDS011;5597;47.588;9.642;2023-04-28T13:35:29;2.17;;;2.00;;
11086;SDS011;5597;47.588;9.642;2023-04-28T13:37:55;3.53;;;2.10;;
11086;SDS011;5597;47.588;9.642;2023-04-28T13:40:26;2.40;;;2.20;;
11086;SDS011;5597;47.588;9.642;2023-04-28T13:42:52;2.17;;;1.93;;
11086;SDS011;5597;47.588;9.642;2023-04-28T13:45:18;3.07;;;2.30;;
11086;SDS011;5597;47.588;9.642;2023-04-28T13:47:43;2.20;;;2.00;;
11086;SDS011;5597;47.588;9.642;2023-04-28T13:50:09;3.20;;;2.33;;
11086;SDS011;5597;47.588;9.642;2023-04-28T13:52:34;2.43;;;2.23;;
11086;SDS011;5597;47.588;9.642;2023-04-28T13:55:00;2.17;;;1.90;;
11086;SDS011;5597;47.588;9.642;2023-04-28T13:57:26;2.10;;;1.90;;
11086;SDS011;5597;47.588;9.642;2023-04-28T13:59:51;2.27;;;1.90;;
11086;SDS011;5597;47.588;9.642;2023-04-28T14:02:17;2.00;;;1.80;;
11086;SDS011;5597;47.588;9.642;2023-04-28T14:04:43;2.13;;;1.93;;
11086;SDS011;5597;47.588;9.642;2023-04-28T14:07:14;2.13;;;1.93;;
11086;SDS011;5597;47.588;9.642;2023-04-28T14:09:40;1.60;;;1.50;;
11086;SDS011;5597;47.588;9.642;2023-04-28T14:12:06;1.67;;;1.57;;
11086;SDS011;5597;47.588;9.642;2023-04-28T14:14:32;2.07;;;1.50;;
11086;SDS011;5597;47.588;9.642;2023-04-28T14:16:57;1.47;;;1.37;;
11086;SDS011;5597;47.588;9.642;2023-04-28T14:19:23;1.93;;;1.50;;
11086;SDS011;5597;47.588;9.642;2023-04-28T14:21:50;1.40;;;1.30;;
11086;SDS011;5597;47.588;9.642;2023-04-28T14:24:17;1.50;;;1.40;;
11086;SDS011;5597;47.588;9.642;2023-04-28T14:26:44;1.63;;;1.30;;
11086;SDS011;5597;47.588;9.642;2023-04-28T14:29:09;1.70;;;1.53;;
11086;SDS011;5597;47.588;9.642;2023-04-28T14:31:35;1.27;;;1.17;;
11086;SDS011;5597;47.588;9.642;2023-04-28T14:34:01;1.50;;;1.40;;
11086;SDS011;5597;47.588;9.642;2023-04-28T14:36:27;1.60;;;1.50;;
11086;SDS011;5597;47.588;9.642;2023-04-28T14:38:56;1.40;;;1.30;;
11086;SDS011;5597;47.588;9.642;2023-04-28T14:41:21;1.40;;;1.30;;
11086;SDS011;5597;47.588;9.642;2023-04-28T14:43:47;3.07;;;1.40;;
11086;SDS011;5597;47.588;9.642;2023-04-28T14:46:13;1.50;;;1.33;;
11086;SDS011;5597;47.588;9.642;2023-04-28T14:48:38;1.30;;;1.20;;
11086;SDS011;5597;47.588;9.642;2023-04-28T14:51:04;1.30;;;1.20;;
11086;SDS011;5597;47.588;9.642;2023-04-28T14:53:30;1.40;;;1.30;;
11086;SDS011;5597;47.588;9.642;2023-04-28T14:55:56;2.10;;;1.20;;
11086;SDS011;5597;47.588;9.642;2023-04-28T14:58:23;1.30;;;1.20;;
11086;SDS011;5597;47.588;9.642;2023-04-28T15:00:48;1.50;;;1.30;;
11086;SDS011;5597;47.588;9.642;2023-04-28T15:03:14;1.40;;;1.30;;
11086;SDS011;5597;47.588;9.642;2023-04-28T15:05:40;1.40;;;1.30;;
11086;SDS011;5597;47.588;9.642;2023-04-28T15:08:05;1.40;;;1.30;;
11086;SDS011;5597;47.588;9.642;2023-04-28T15:10:37;1.40;;;1.20;;
11086;SDS011;5597;47.588;9.642;2023-04-28T15:13:04;1.70;;;1.60;;
11086;SDS011;5597;47.588;9.642;2023-04-28T15:15:30;1.63;;;1.30;;
11086;SDS011;5597;47.588;9.642;2023-04-28T15:17:56;1.47;;;1.30;;
11086;SDS011;5597;47.588;9.642;2023-04-28T15:20:30;1.50;;;1.40;;
11086;SDS011;5597;47.588;9.642;2023-04-28T15:22:57;1.60;;;1.50;;
11086;SDS011;5597;47.588;9.642;2023-04-28T15:25:23;2.00;;;1.33;;
11086;SDS011;5597;47.588;9.642;2023-04-28T15:27:49;1.20;;;1.10;;
11086;SDS011;5597;47.588;9.642;2023-04-28T15:30:15;1.33;;;1.23;;
11086;SDS011;5597;47.588;9.642;2023-04-28T15:32:42;1.60;;;1.20;;
11086;SDS011;5597;47.588;9.642;2023-04-28T15:35:08;1.77;;;1.57;;
11086;SDS011;5597;47.588;9.642;2023-04-28T15:40:04;2.63;;;1.60;;
11086;SDS011;5597;47.588;9.642;2023-04-28T15:42:31;1.60;;;1.50;;
11086;SDS011;5597;47.588;9.642;2023-04-28T15:44:58;1.53;;;1.40;;
11086;SDS011;5597;47.588;9.642;2023-04-28T15:47:23;1.57;;;1.47;;
11086;SDS011;5597;47.588;9.642;2023-04-28T15:49:49;1.50;;;1.40;;
11086;SDS011;5597;47.588;9.642;2023-04-28T15:52:15;1.80;;;1.70;;
11086;SDS011;5597;47.588;9.642;2023-04-28T15:54:41;2.87;;;2.07;;
11086;SDS011;5597;47.588;9.642;2023-04-28T15:57:07;2.10;;;1.90;;
11086;SDS011;5597;47.588;9.642;2023-04-28T15:59:32;2.17;;;2.00;;
11086;SDS011;5597;47.588;9.642;2023-04-28T16:01:59;2.53;;;1.77;;
11086;SDS011;5597;47.588;9.642;2023-04-28T16:04:25;1.90;;;1.70;;
11086;SDS011;5597;47.588;9.642;2023-04-28T16:06:51;2.20;;;1.70;;
11086;SDS011;5597;47.588;9.642;2023-04-28T16:09:17;2.10;;;1.90;;